createdAt,value
2023-04-14T00:01:20.355Z,31.50
2023-04-14T00:03:46.934Z,31.57
2023-04-14T00:06:13.429Z,31.57
2023-04-14T00:08:39.755Z,31.43
2023-04-14T00:11:06.100Z,31.49
2023-04-14T00:13:32.415Z,31.54
2023-04-14T00:15:58.805Z,31.43
2023-04-14T00:18:25.760Z,31.68
2023-04-14T00:20:54.167Z,31.55
2023-04-14T00:23:20.835Z,31.38
2023-04-14T00:25:47.248Z,31.55
2023-04-14T00:28:13.592Z,31.68
2023-04-14T00:30:40.000Z,31.64
2023-04-14T00:33:06.320Z,31.50
2023-04-14T00:35:32.646Z,31.80
2023-04-14T00:37:58.990Z,31.86
2023-04-14T00:40:25.509Z,31.64
2023-04-14T00:42:51.830Z,31.77
2023-04-14T00:45:18.157Z,31.69
2023-04-14T00:47:47.334Z,31.79
2023-04-14T00:50:14.203Z,31.66
2023-04-14T00:52:40.717Z,31.77
2023-04-14T00:55:07.407Z,31.56
2023-04-14T00:57:33.737Z,31.77
2023-04-14T01:00:00.321Z,31.64
2023-04-14T01:02:26.820Z,31.57
2023-04-14T01:04:54.568Z,31.63
2023-04-14T01:07:21.580Z,31.64
2023-04-14T01:09:47.914Z,31.71
2023-04-14T01:12:32.756Z,31.46
2023-04-14T01:15:12.560Z,31.48
2023-04-14T01:17:44.991Z,31.63
2023-04-14T01:20:11.263Z,31.65
2023-04-14T01:22:44.112Z,31.61
2023-04-14T01:25:29.444Z,31.66
2023-04-14T01:28:09.518Z,31.66
2023-04-14T01:30:57.171Z,31.52
2023-04-14T01:33:23.829Z,31.60
2023-04-14T01:35:51.391Z,31.64
2023-04-14T01:38:19.265Z,31.62
2023-04-14T01:40:48.397Z,31.63
2023-04-14T01:43:14.706Z,31.72
2023-04-14T01:45:44.849Z,31.37
2023-04-14T01:48:11.355Z,31.60
2023-04-14T01:50:37.907Z,31.41
2023-04-14T01:53:05.087Z,31.39
2023-04-14T01:55:31.430Z,31.63
2023-04-14T01:57:57.887Z,31.71
2023-04-14T02:00:24.226Z,31.58
2023-04-14T02:02:50.758Z,31.46
2023-04-14T02:05:17.284Z,31.55
2023-04-14T02:07:43.615Z,31.56
2023-04-14T02:10:10.799Z,31.58
2023-04-14T02:12:37.734Z,31.42
2023-04-14T02:15:05.289Z,31.36
2023-04-14T02:17:31.679Z,31.63
2023-04-14T02:19:58.072Z,31.57
2023-04-14T02:22:24.458Z,31.58
2023-04-14T02:24:51.418Z,31.54
2023-04-14T02:27:18.802Z,31.50
2023-04-14T02:29:46.922Z,31.56
2023-04-14T02:32:14.809Z,31.25
2023-04-14T02:34:45.855Z,31.51
2023-04-14T02:37:15.366Z,31.44
2023-04-14T02:39:42.600Z,31.61
2023-04-14T02:42:12.741Z,31.64
2023-04-14T02:44:39.771Z,31.55
2023-04-14T02:47:13.645Z,31.41
2023-04-14T02:49:46.081Z,31.37
2023-04-14T02:52:13.464Z,31.58
2023-04-14T02:54:39.994Z,31.51
2023-04-14T02:57:06.395Z,31.56
2023-04-14T02:59:32.730Z,31.63
2023-04-14T03:02:04.521Z,31.78
2023-04-14T03:04:31.300Z,31.71
2023-04-14T03:06:57.840Z,31.75
2023-04-14T03:09:24.150Z,31.69
2023-04-14T03:11:50.500Z,31.64
2023-04-14T03:14:18.016Z,31.64
2023-04-14T03:16:44.332Z,31.73
2023-04-14T03:19:12.458Z,31.74
2023-04-14T03:21:38.891Z,31.50
2023-04-14T03:24:05.810Z,31.79
2023-04-14T03:26:32.372Z,31.88
2023-04-14T03:28:59.244Z,31.73
2023-04-14T03:31:29.167Z,31.58
2023-04-14T03:33:57.148Z,31.73
2023-04-14T03:36:23.491Z,31.77
2023-04-14T03:38:49.916Z,31.58
2023-04-14T03:41:16.241Z,31.75
2023-04-14T03:43:42.584Z,31.72
2023-04-14T03:46:11.039Z,31.75
2023-04-14T03:48:42.232Z,31.78
2023-04-14T03:51:09.477Z,31.62
2023-04-14T03:53:36.190Z,31.78
2023-04-14T03:56:02.561Z,31.56
2023-04-14T03:58:28.879Z,31.63
2023-04-14T04:00:55.354Z,31.54
2023-04-14T04:03:21.906Z,31.48
2023-04-14T04:05:48.391Z,31.60
2023-04-14T04:08:14.706Z,31.43
2023-04-14T04:10:41.085Z,31.57
2023-04-14T04:13:07.873Z,31.66
2023-04-14T04:15:34.420Z,31.49
2023-04-14T04:18:01.038Z,31.80
2023-04-14T04:20:27.405Z,31.53
2023-04-14T04:22:54.734Z,31.50
2023-04-14T04:25:21.052Z,31.66
2023-04-14T04:27:47.937Z,31.60
2023-04-14T04:30:14.276Z,31.70
2023-04-14T04:32:40.783Z,31.66
2023-04-14T04:35:07.353Z,31.63
2023-04-14T04:37:34.525Z,31.77
2023-04-14T04:40:00.883Z,31.50
2023-04-14T04:42:27.222Z,31.67
2023-04-14T04:44:53.558Z,31.56
2023-04-14T04:47:19.867Z,31.59
2023-04-14T04:49:46.180Z,31.54
2023-04-14T04:52:12.514Z,31.57
2023-04-14T04:54:38.826Z,31.51
2023-04-14T04:57:05.168Z,31.49
2023-04-14T04:59:32.961Z,31.59
2023-04-14T05:01:59.361Z,31.40
2023-04-14T05:04:25.784Z,31.56
2023-04-14T05:06:52.357Z,31.25
2023-04-14T05:09:18.734Z,31.28
2023-04-14T05:11:45.050Z,31.23
2023-04-14T05:14:11.384Z,31.17
2023-04-14T05:16:37.710Z,31.12
2023-04-14T05:19:04.261Z,31.17
2023-04-14T05:21:30.570Z,31.08
2023-04-14T05:23:56.950Z,31.00
2023-04-14T05:28:52.872Z,30.87
2023-04-14T05:31:20.144Z,31.12
2023-04-14T05:33:46.515Z,30.96
2023-04-14T05:36:12.851Z,31.10
2023-04-14T05:38:40.033Z,31.08
2023-04-14T05:41:07.113Z,31.10
2023-04-14T05:43:33.451Z,30.88
2023-04-14T05:46:00.386Z,30.93
2023-04-14T05:48:29.801Z,30.95
2023-04-14T05:50:56.460Z,30.77
2023-04-14T05:53:23.615Z,30.91
2023-04-14T05:55:51.470Z,30.74
2023-04-14T05:58:18.184Z,30.65
2023-04-14T06:00:44.595Z,30.60
2023-04-14T06:03:11.420Z,30.70
2023-04-14T06:05:37.975Z,30.82
2023-04-14T06:08:04.313Z,31.00
2023-04-14T06:10:32.034Z,30.72
2023-04-14T06:12:58.506Z,30.95
2023-04-14T06:15:28.238Z,30.93
2023-04-14T06:17:54.695Z,30.87
2023-04-14T06:20:21.774Z,30.89
2023-04-14T06:22:48.145Z,30.75
2023-04-14T06:25:14.524Z,30.67
2023-04-14T06:27:40.865Z,30.74
2023-04-14T06:30:07.940Z,30.61
2023-04-14T06:32:34.441Z,30.57
2023-04-14T06:35:01.481Z,30.85
2023-04-14T06:37:27.883Z,30.83
2023-04-14T06:39:54.230Z,30.66
2023-04-14T06:42:20.660Z,30.48
2023-04-14T06:44:47.073Z,30.48
2023-04-14T06:47:17.736Z,30.47
2023-04-14T06:49:44.219Z,30.36
2023-04-14T06:52:10.652Z,30.38
2023-04-14T06:54:36.986Z,30.36
2023-04-14T06:57:03.415Z,30.26
2023-04-14T06:59:29.774Z,30.41
2023-04-14T07:01:58.540Z,30.30
2023-04-14T07:04:25.760Z,30.39
2023-04-14T07:06:52.143Z,30.32
2023-04-14T07:09:19.233Z,30.39
2023-04-14T07:11:46.452Z,30.32
2023-04-14T07:14:12.800Z,30.32
2023-04-14T07:16:39.132Z,30.15
2023-04-14T07:19:05.608Z,30.15
2023-04-14T07:21:32.455Z,30.11
2023-04-14T07:23:58.930Z,30.07
2023-04-14T07:26:25.814Z,30.20
2023-04-14T07:28:52.137Z,30.12
2023-04-14T07:31:18.491Z,29.82
2023-04-14T07:33:44.841Z,29.88
2023-04-14T07:36:11.701Z,29.95
2023-04-14T07:38:38.043Z,29.86
2023-04-14T07:41:05.213Z,29.69
2023-04-14T07:43:37.520Z,29.74
2023-04-14T07:46:04.974Z,29.65
2023-04-14T07:48:31.855Z,29.60
2023-04-14T07:50:58.340Z,29.57
2023-04-14T07:53:24.660Z,29.48
2023-04-14T07:55:50.986Z,29.52
2023-04-14T07:58:17.320Z,29.29
2023-04-14T08:00:43.745Z,29.48
2023-04-14T08:03:10.280Z,29.36
2023-04-14T08:05:36.917Z,29.33
2023-04-14T08:08:03.327Z,28.96
2023-04-14T08:10:29.640Z,28.87
2023-04-14T08:12:55.945Z,29.13
2023-04-14T08:15:22.260Z,29.10
2023-04-14T08:17:48.645Z,29.02
2023-04-14T08:20:15.100Z,28.96
2023-04-14T08:22:43.106Z,28.75
2023-04-14T08:25:12.101Z,28.78
2023-04-14T08:27:38.663Z,28.92
2023-04-14T08:30:05.636Z,28.67
2023-04-14T08:32:32.058Z,28.81
2023-04-14T08:35:39.342Z,28.85
2023-04-14T08:37:45.472Z,28.93
2023-04-14T08:40:12.269Z,28.80
2023-04-14T08:42:38.762Z,28.93
2023-04-14T08:45:05.658Z,29.12
2023-04-14T08:47:32.124Z,28.99
2023-04-14T08:50:07.097Z,28.96
2023-04-14T08:52:36.460Z,29.36
2023-04-14T08:55:04.560Z,29.34
2023-04-14T08:57:31.526Z,28.98
2023-04-14T08:59:57.933Z,29.07
2023-04-14T09:02:24.434Z,29.14
2023-04-14T09:04:50.953Z,28.77
2023-04-14T09:07:17.395Z,28.65
2023-04-14T09:09:43.865Z,28.28
2023-04-14T09:12:10.237Z,28.40
2023-04-14T09:14:36.594Z,28.29
2023-04-14T09:17:03.014Z,28.44
2023-04-14T09:19:29.748Z,28.21
2023-04-14T09:21:56.595Z,27.80
2023-04-14T09:24:31.265Z,28.14
2023-04-14T09:26:58.660Z,27.98
2023-04-14T09:29:25.289Z,27.88
2023-04-14T09:31:51.835Z,27.90
2023-04-14T09:34:18.728Z,27.76
2023-04-14T09:37:06.357Z,27.78
2023-04-14T09:39:36.637Z,27.94
2023-04-14T09:42:03.621Z,27.75
2023-04-14T09:44:30.189Z,27.85
2023-04-14T09:46:59.218Z,27.39
2023-04-14T09:49:25.701Z,27.63
2023-04-14T09:51:57.696Z,27.73
2023-04-14T09:54:25.695Z,27.52
2023-04-14T09:56:52.724Z,27.65
2023-04-14T09:59:29.322Z,27.20
2023-04-14T10:01:58.534Z,27.44
2023-04-14T10:04:26.544Z,27.02
2023-04-14T10:06:56.708Z,26.99
2023-04-14T10:09:23.144Z,27.06
2023-04-14T10:12:12.379Z,26.64
2023-04-14T10:14:39.588Z,26.37
2023-04-14T10:17:07.061Z,26.56
2023-04-14T10:19:33.619Z,26.23
2023-04-14T10:22:00.118Z,26.36
2023-04-14T10:24:26.444Z,25.91
2023-04-14T10:26:52.985Z,25.85
2023-04-14T10:29:19.293Z,26.15
2023-04-14T10:31:47.358Z,26.16
2023-04-14T10:34:13.954Z,25.97
2023-04-14T10:36:40.287Z,25.98
2023-04-14T10:39:07.155Z,26.04
2023-04-14T10:41:38.021Z,25.71
2023-04-14T10:44:04.352Z,25.30
2023-04-14T10:46:43.413Z,25.47
2023-04-14T10:49:11.439Z,25.83
2023-04-14T10:51:38.015Z,25.91
2023-04-14T10:54:04.368Z,25.48
2023-04-14T10:56:31.001Z,25.38
2023-04-14T10:58:57.631Z,25.64
2023-04-14T11:01:25.865Z,25.51
2023-04-14T11:03:52.975Z,25.35
2023-04-14T11:06:46.116Z,25.27
2023-04-14T11:09:32.437Z,25.55
2023-04-14T11:12:02.567Z,24.90
2023-04-14T11:14:31.742Z,25.34
2023-04-14T11:17:04.096Z,25.56
2023-04-14T11:19:30.865Z,24.52
2023-04-14T11:21:57.242Z,24.70
2023-04-14T11:24:23.687Z,24.91
2023-04-14T11:26:55.887Z,24.76
2023-04-14T11:29:22.346Z,24.55
2023-04-14T11:32:01.042Z,24.91
2023-04-14T11:34:30.099Z,25.10
2023-04-14T11:36:56.764Z,25.13
2023-04-14T11:39:23.338Z,25.44
2023-04-14T11:41:52.394Z,25.10
2023-04-14T11:44:18.994Z,25.78
2023-04-14T11:46:45.326Z,24.98
2023-04-14T11:49:11.991Z,25.64
2023-04-14T11:51:38.877Z,25.55
2023-04-14T11:54:05.254Z,25.68
2023-04-14T11:56:31.979Z,25.47
2023-04-14T11:59:07.468Z,25.30
2023-04-14T12:01:33.805Z,25.49
2023-04-14T12:04:00.265Z,25.48
2023-04-14T12:06:27.414Z,25.48
2023-04-14T12:08:53.974Z,25.39
2023-04-14T12:11:20.319Z,25.54
2023-04-14T12:13:47.173Z,25.54
2023-04-14T12:16:14.205Z,25.36
2023-04-14T12:18:40.994Z,25.41
2023-04-14T12:21:09.898Z,25.78
2023-04-14T12:23:38.702Z,25.71
2023-04-14T12:26:09.465Z,25.45
2023-04-14T12:28:37.128Z,25.83
2023-04-14T12:31:04.080Z,25.61
2023-04-14T12:33:30.987Z,25.89
2023-04-14T12:36:07.133Z,25.95
2023-04-14T12:38:33.674Z,25.91
2023-04-14T12:41:00.422Z,25.79
2023-04-14T12:43:27.337Z,26.18
2023-04-14T12:45:55.197Z,26.01
2023-04-14T12:48:22.276Z,26.41
2023-04-14T12:50:48.977Z,26.25
2023-04-14T12:53:27.051Z,26.53
2023-04-14T12:56:08.447Z,26.40
2023-04-14T12:58:36.060Z,26.65
2023-04-14T13:01:02.403Z,26.63
2023-04-14T13:03:58.076Z,26.39
2023-04-14T13:06:24.578Z,26.63
2023-04-14T13:08:51.502Z,26.47
2023-04-14T13:11:18.141Z,26.54
2023-04-14T13:13:45.368Z,26.47
2023-04-14T13:16:15.296Z,26.44
2023-04-14T13:18:42.891Z,26.57
2023-04-14T13:21:09.668Z,26.72
2023-04-14T13:23:36.798Z,26.87
2023-04-14T13:26:03.231Z,26.92
2023-04-14T13:28:29.729Z,26.85
2023-04-14T13:30:56.614Z,26.93
2023-04-14T13:33:23.311Z,27.21
2023-04-14T13:35:49.859Z,27.39
2023-04-14T13:38:16.185Z,27.34
2023-04-14T13:40:42.503Z,27.42
2023-04-14T13:43:08.847Z,27.37
2023-04-14T13:45:35.581Z,27.24
2023-04-14T13:48:01.957Z,27.33
2023-04-14T13:50:28.377Z,27.34
2023-04-14T13:52:54.705Z,27.12
2023-04-14T13:55:21.141Z,27.25
2023-04-14T13:57:47.455Z,27.46
2023-04-14T14:00:14.008Z,27.49
2023-04-14T14:02:40.587Z,27.67
2023-04-14T14:05:07.904Z,27.57
2023-04-14T14:07:34.330Z,27.65
2023-04-14T14:10:01.016Z,27.59
2023-04-14T14:12:27.368Z,27.58
2023-04-14T14:14:53.680Z,27.80
2023-04-14T14:17:20.036Z,27.54
2023-04-14T14:19:46.348Z,27.68
2023-04-14T14:22:12.698Z,27.82
2023-04-14T14:24:40.175Z,27.80
2023-04-14T14:27:06.519Z,27.83
2023-04-14T14:29:34.840Z,27.80
2023-04-14T14:32:01.847Z,27.76
2023-04-14T14:34:28.174Z,27.82
2023-04-14T14:36:54.624Z,27.80
2023-04-14T14:39:21.160Z,27.92
2023-04-14T14:41:47.750Z,28.03
2023-04-14T14:44:14.186Z,27.90
2023-04-14T14:46:40.687Z,27.89
2023-04-14T14:49:08.924Z,27.92
2023-04-14T14:51:36.073Z,28.05
2023-04-14T14:54:09.914Z,28.04
2023-04-14T14:56:36.927Z,28.32
2023-04-14T14:59:03.322Z,28.24
2023-04-14T15:01:29.688Z,28.08
2023-04-14T15:03:56.931Z,28.06
2023-04-14T15:06:23.354Z,28.24
2023-04-14T15:08:49.888Z,28.15
2023-04-14T15:11:16.252Z,28.23
2023-04-14T15:13:45.506Z,24.58
2023-04-14T15:16:11.848Z,25.18
2023-04-14T15:18:38.188Z,27.15
2023-04-14T15:21:04.634Z,26.88
2023-04-14T15:23:35.318Z,27.01
2023-04-14T15:26:02.279Z,27.41
2023-04-14T15:28:29.423Z,27.52
2023-04-14T15:30:55.869Z,27.49
2023-04-14T15:33:22.185Z,27.79
2023-04-14T15:35:48.497Z,27.72
2023-04-14T15:38:14.831Z,27.73
2023-04-14T15:40:41.238Z,27.80
2023-04-14T15:43:07.561Z,27.75
2023-04-14T15:45:33.887Z,27.93
2023-04-14T15:48:00.288Z,27.92
2023-04-14T15:50:26.648Z,28.18
2023-04-14T15:52:53.040Z,28.38
2023-04-14T15:55:19.605Z,28.43
2023-04-14T15:57:46.172Z,28.24
2023-04-14T16:00:12.865Z,28.28
2023-04-14T16:02:39.380Z,28.42
2023-04-14T16:05:06.006Z,28.50
2023-04-14T16:07:32.564Z,28.54
2023-04-14T16:09:59.297Z,28.80
2023-04-14T16:12:25.629Z,28.77
2023-04-14T16:14:54.305Z,28.69
2023-04-14T16:17:21.940Z,28.85
2023-04-14T16:19:48.290Z,28.81
2023-04-14T16:22:14.636Z,28.85
2023-04-14T16:24:41.136Z,28.82
2023-04-14T16:27:07.661Z,28.78
2023-04-14T16:29:34.194Z,28.78
2023-04-14T16:32:00.561Z,28.85
2023-04-14T16:34:26.882Z,29.17
2023-04-14T16:36:53.221Z,29.02
2023-04-14T16:39:20.776Z,29.23
2023-04-14T16:41:48.213Z,29.26
2023-04-14T16:44:14.526Z,29.26
2023-04-14T16:46:41.191Z,29.27
2023-04-14T16:49:07.771Z,29.35
2023-04-14T16:51:34.458Z,29.44
2023-04-14T16:54:01.026Z,29.46
2023-04-14T16:56:27.526Z,29.30
2023-04-14T16:58:53.837Z,29.37
2023-04-14T17:01:20.811Z,29.34
2023-04-14T17:03:47.400Z,29.44
2023-04-14T17:06:13.828Z,29.34
2023-04-14T17:08:40.160Z,29.32
2023-04-14T17:11:06.509Z,29.53
2023-04-14T17:13:32.865Z,29.35
2023-04-14T17:16:08.269Z,29.40
2023-04-14T17:18:35.663Z,29.41
2023-04-14T17:21:02.034Z,29.47
2023-04-14T17:23:28.568Z,29.56
2023-04-14T17:25:55.298Z,29.56
2023-04-14T17:28:22.737Z,29.63
2023-04-14T17:30:49.858Z,29.51
2023-04-14T17:33:17.176Z,29.51
2023-04-14T17:35:43.512Z,29.64
2023-04-14T17:38:09.963Z,29.73
2023-04-14T17:40:36.284Z,29.77
2023-04-14T17:43:04.325Z,29.72
2023-04-14T17:45:30.878Z,29.81
2023-04-14T17:47:57.306Z,29.64
2023-04-14T17:50:24.004Z,29.88
2023-04-14T17:52:51.001Z,29.67
2023-04-14T17:55:17.306Z,29.61
2023-04-14T17:57:45.024Z,29.68
2023-04-14T18:00:11.587Z,29.77
2023-04-14T18:02:41.406Z,29.81
2023-04-14T18:05:08.129Z,29.85
2023-04-14T18:07:34.626Z,29.77
2023-04-14T18:10:00.930Z,29.71
2023-04-14T18:12:27.652Z,29.71
2023-04-14T18:14:54.027Z,29.79
2023-04-14T18:17:20.468Z,29.72
2023-04-14T18:19:46.880Z,29.63
2023-04-14T18:22:13.236Z,29.65
2023-04-14T18:29:38.045Z,29.85
2023-04-14T18:32:04.388Z,29.84
2023-04-14T18:34:30.780Z,30.00
2023-04-14T18:36:57.524Z,29.95
2023-04-14T18:39:25.013Z,29.99
2023-04-14T18:41:51.361Z,29.92
2023-04-14T18:44:18.249Z,29.96
2023-04-14T18:46:44.810Z,30.11
2023-04-14T18:49:11.606Z,29.97
2023-04-14T18:51:37.949Z,30.03
2023-04-14T18:54:04.645Z,30.10
2023-04-14T18:56:31.532Z,29.98
2023-04-14T18:58:57.860Z,29.99
2023-04-14T19:01:24.307Z,30.21
2023-04-14T19:03:50.691Z,30.05
2023-04-14T19:06:17.143Z,30.22
2023-04-14T19:08:43.510Z,30.01
2023-04-14T19:11:11.841Z,30.10
2023-04-14T19:13:38.597Z,30.12
2023-04-14T19:16:14.571Z,30.26
2023-04-14T19:18:40.992Z,30.14
2023-04-14T19:21:08.874Z,30.04
2023-04-14T19:23:35.424Z,29.97
2023-04-14T19:26:02.367Z,30.08
2023-04-14T19:28:28.836Z,30.27
2023-04-14T19:30:55.166Z,30.35
2023-04-14T19:33:21.472Z,30.36
2023-04-14T19:35:48.991Z,30.34
2023-04-14T19:38:15.491Z,30.46
2023-04-14T19:40:50.963Z,30.34
2023-04-14T19:43:17.959Z,30.37
2023-04-14T19:45:53.500Z,30.38
2023-04-14T19:48:23.970Z,30.36
2023-04-14T19:50:54.717Z,30.70
2023-04-14T19:53:21.698Z,30.76
2023-04-14T19:55:49.345Z,30.46
2023-04-14T19:58:15.681Z,30.34
2023-04-14T20:00:42.014Z,30.11
2023-04-14T20:03:09.056Z,29.90
2023-04-14T20:05:35.562Z,29.61
2023-04-14T20:08:01.883Z,29.69
2023-04-14T20:10:28.201Z,29.63
2023-04-14T20:12:54.536Z,29.67
2023-04-14T20:15:21.016Z,29.08
2023-04-14T20:17:47.492Z,29.22
2023-04-14T20:20:14.372Z,29.24
2023-04-14T20:22:40.693Z,29.19
2023-04-14T20:25:07.712Z,28.81
2023-04-14T20:27:34.028Z,28.90
2023-04-14T20:30:01.274Z,29.08
2023-04-14T20:32:27.648Z,29.22
2023-04-14T20:34:54.027Z,29.38
2023-04-14T20:37:20.352Z,29.79
2023-04-14T20:39:47.904Z,29.74
2023-04-14T20:42:14.419Z,30.08
2023-04-14T20:44:40.908Z,30.34
2023-04-14T20:47:08.234Z,30.23
2023-04-14T20:49:34.793Z,30.70
2023-04-14T20:52:01.119Z,30.60
2023-04-14T20:54:27.442Z,30.53
2023-04-14T20:56:53.772Z,30.38
2023-04-14T20:59:20.315Z,30.29
2023-04-14T21:01:46.721Z,30.23
2023-04-14T21:04:13.174Z,31.00
2023-04-14T21:06:39.593Z,31.27
2023-04-14T21:09:05.905Z,31.13
2023-04-14T21:11:32.478Z,31.57
2023-04-14T21:15:30.734Z,31.12
2023-04-14T21:16:45.128Z,31.88
2023-04-14T21:19:13.280Z,31.86
2023-04-14T21:21:39.880Z,31.60
2023-04-14T21:24:06.795Z,31.47
2023-04-14T21:26:33.186Z,31.53
2023-04-14T21:28:59.600Z,31.49
2023-04-14T21:31:26.114Z,31.69
2023-04-14T21:33:52.486Z,31.59
2023-04-14T21:36:19.637Z,31.49
2023-04-14T21:38:46.504Z,31.61
2023-04-14T21:41:13.175Z,31.17
2023-04-14T21:43:39.525Z,31.45
2023-04-14T21:46:05.903Z,31.17
2023-04-14T21:48:32.288Z,31.25
2023-04-14T21:50:58.869Z,31.14
2023-04-14T21:53:25.211Z,31.47
2023-04-14T21:56:09.165Z,31.39
2023-04-14T21:58:36.903Z,31.38
2023-04-14T22:01:03.343Z,31.19
2023-04-14T22:03:29.947Z,31.45
2023-04-14T22:05:56.358Z,30.95
2023-04-14T22:08:23.940Z,31.34
2023-04-14T22:10:50.330Z,30.98
2023-04-14T22:13:16.648Z,30.91
2023-04-14T22:15:43.456Z,30.78
2023-04-14T22:18:10.696Z,30.94
2023-04-14T22:20:37.320Z,30.94
2023-04-14T22:23:03.664Z,31.30
2023-04-14T22:25:30.117Z,31.24
2023-04-14T22:27:57.211Z,31.44
2023-04-14T22:30:23.661Z,31.05
2023-04-14T22:32:50.058Z,31.05
2023-04-14T22:35:16.484Z,30.96
2023-04-14T22:37:42.787Z,31.23
2023-04-14T22:40:09.830Z,30.92
2023-04-14T22:42:36.612Z,31.18
2023-04-14T22:45:02.961Z,31.10
2023-04-14T22:47:29.309Z,30.81
2023-04-14T22:49:55.648Z,30.86
2023-04-14T22:52:21.989Z,30.90
2023-04-14T22:54:48.643Z,30.73
2023-04-14T22:57:14.998Z,31.06
2023-04-14T22:59:41.330Z,31.05
2023-04-14T23:02:08.133Z,30.94
2023-04-14T23:04:34.608Z,31.09
2023-04-14T23:07:01.014Z,31.07
2023-04-14T23:09:30.296Z,30.97
2023-04-14T23:11:57.099Z,30.80
2023-04-14T23:14:23.689Z,31.00
2023-04-14T23:16:50.011Z,30.78
2023-04-14T23:19:16.436Z,30.79
2023-04-14T23:21:43.925Z,30.94
2023-04-14T23:24:10.531Z,30.90
2023-04-14T23:26:37.216Z,30.93
2023-04-14T23:29:04.629Z,30.69
2023-04-14T23:31:31.573Z,30.67
2023-04-14T23:33:57.957Z,30.79
2023-04-14T23:36:24.296Z,30.91
2023-04-14T23:38:50.617Z,30.90
2023-04-14T23:41:17.066Z,30.92
2023-04-14T23:43:43.382Z,30.69
2023-04-14T23:46:09.778Z,30.82
2023-04-14T23:48:36.096Z,30.75
2023-04-14T23:51:18.558Z,30.66
2023-04-14T23:53:48.020Z,30.81
2023-04-14T23:56:14.384Z,30.61
2023-04-14T23:58:40.718Z,30.69
